Latest Coastal Weather Observations for Bunbury

IDW60701

Issued at 5:32 pm WST Monday 11 December 2017 (issued every 10 minutes, with the page automatically refreshed every 10 minutes)

About coastal observations | Map of coastal stations | Coastal observations for WA | Marine services | Other Formats
Station Details ID: 009965 Name: BUNBURY Lat: -33.36 Lon: 115.64 Height: 5.2 m
Data from the previous 72 hours. | See also: Recent months at Bunbury
Date/Time
WST
Temp
°C
Wind Pressure Rain since
9am
mm
Weather Cloud Vis
km
Sea
Height
m
Swell
Dir  Spd
kts
Gust
kts
hPa Trend Height
m
Period
s
Dir
11/05:30pm 31.8 SW 7 12 1005.9 - 0.0 - - - - - - -
11/05:00pm 32.6 SW 11 16 1005.8 - 0.0 - - - - - - -
11/04:30pm 29.5 WSW 7 12 1006.0 - 0.0 - - - - - - -
11/04:00pm 30.7 W 8 13 1006.2 - 0.0 - - - - - - -
11/03:30pm 29.4 W 7 12 1006.4 - 0.0 - - - - - - -
11/03:00pm 29.8 W 8 15 1006.6 - 0.0 - - - - - - -
11/02:30pm 30.7 W 9 13 1006.7 - 0.0 - - - - - - -
11/02:00pm 31.8 WNW 7 9 1007.1 - 0.0 - - - - - - -
11/01:30pm 32.5 NW 7 9 1007.4 - 0.0 - - - - - - -
11/01:00pm 32.8 NW 7 9 1007.7 - 0.0 - - - - - - -
11/12:30pm 32.6 WNW 8 11 1008.1 - 0.0 - - - - - - -
11/12:00pm 32.2 WNW 8 12 1008.5 - 0.0 - - - - - - -
11/11:30am 32.3 WNW 6 9 1008.8 - 0.0 - - - - - - -
11/11:00am 32.6 NW 6 10 1009.0 - 0.0 - - - - - - -
11/10:30am 31.8 NNW 5 8 1009.2 - 0.0 - - - - - - -
11/10:00am 31.7 NNW 4 7 1009.6 - 0.0 - - - - - - -
11/09:30am 31.0 SSW 2 4 1009.7 - 0.0 - - - - - - -
11/09:00am 29.6 S 5 9 1009.8 - 0.0 - - - - - - -
11/08:30am 28.3 SSE 5 7 1010.2 - 0.0 - - - - - - -
11/08:00am 27.0 SSE 6 9 1010.4 - 0.0 - - - - - - -
11/07:30am 24.2 SSE 6 9 1010.6 - 0.0 - - - - - - -
11/07:00am 22.6 SSE 7 10 1010.7 - 0.0 - - - - - - -
11/06:30am 21.3 SSE 7 11 1010.5 - 0.0 - - - - - - -
11/06:00am 20.0 SSE 6 9 1010.5 - 0.0 - - - - - - -
11/05:30am 19.3 SSE 6 8 1010.4 - 0.0 - - - - - - -
11/05:00am 18.9 SSE 6 9 1010.2 - 0.0 - - - - - - -
11/04:30am 19.0 SSE 7 10 1010.1 - 0.0 - - - - - - -
11/04:00am 19.0 SSE 6 9 1010.1 - 0.0 - - - - - - -
11/03:30am 19.1 SSE 7 10 1010.1 - 0.0 - - - - - - -
11/03:00am 19.3 S 7 10 1010.1 - 0.0 - - - - - - -
11/02:30am 19.4 S 6 10 1010.3 - 0.0 - - - - - - -
11/02:00am 19.9 SSE 6 10 1010.7 - 0.0 - - - - - - -
11/01:30am 19.9 S 5 8 1010.9 - 0.0 - - - - - - -
11/01:00am 20.1 S 6 8 1010.9 - 0.0 - - - - - - -
11/12:30am 20.2 S 6 7 1011.2 - 0.0 - - - - - - -
11/12:00am 20.7 SSW 5 6 1011.4 - 0.0 - - - - - - -
 
Date/Time
WST
Temp
°C
Wind Pressure Rain since
9am
mm
Weather Cloud Vis
km
Sea
Height
m
Swell
Dir  Spd
kts
Gust
kts
hPa Trend Height
m
Period
s
Dir
10/11:30pm 21.0 SSW 5 7 1011.6 - 0.0 - - - - - - -
10/11:00pm 21.7 S 6 9 1011.9 - 0.0 - - - - - - -
10/10:30pm 22.3 SSW 3 5 1012.2 - 0.0 - - - - - - -
10/10:00pm 23.3 SSE 4 6 1012.1 - 0.0 - - - - - - -
10/09:30pm 24.3 S 6 8 1011.5 - 0.0 - - - - - - -
10/09:00pm 24.9 S 7 11 1011.3 - 0.0 - - - - - - -
10/08:30pm 25.5 S 5 7 1011.2 - 0.0 - - - - - - -
10/08:00pm 27.0 SSE 6 8 1011.2 - 0.0 - - - - - - -
10/07:30pm 27.5 SSE 6 9 1011.2 - 0.0 - - - - - - -
10/07:00pm 25.3 WSW 4 5 1010.9 - 0.0 - - - - - - -
10/06:30pm 27.7 WSW 4 7 1010.6 - 0.0 - - - - - - -
10/06:00pm 28.2 SW 6 9 1010.8 - 0.0 - - - - - - -
10/05:30pm 28.1 SW 8 11 1010.8 - 0.0 - - - - - - -
10/05:00pm 27.9 WSW 8 13 1010.8 - 0.0 - - - - - - -
10/04:30pm 28.1 WSW 7 12 1010.8 - 0.0 - - - - - - -
10/04:00pm 27.5 WSW 9 12 1010.8 - 0.0 - - - - - - -
10/03:30pm 28.8 W 9 13 1011.0 - 0.0 - - - - - - -
10/03:00pm 28.6 W 10 14 1011.2 - 0.0 - - - - - - -
10/02:30pm 28.4 W 11 15 1011.2 - 0.0 - - - - - - -
10/02:00pm 28.8 WNW 10 14 1011.6 - 0.0 - - - - - - -
10/01:30pm 28.4 W 12 18 1011.7 - 0.0 - - - - - - -
10/01:00pm 29.3 WNW 12 19 1012.0 - 0.0 - - - - - - -
10/12:30pm 32.3 W 8 11 1011.7 - 0.0 - - - - - - -
10/12:00pm 30.4 W 9 12 1012.1 - 0.0 - - - - - - -
10/11:30am 31.7 W 7 9 1012.1 - 0.0 - - - - - - -
10/11:00am 31.3 W 7 8 1012.2 - 0.0 - - - - - - -
10/10:30am 32.0 WNW 6 9 1012.3 - 0.0 - - - - - - -
10/10:00am 32.4 NW 5 7 1012.2 - 0.0 - - - - - - -
10/09:30am 32.0 NW 3 5 1012.4 - 0.0 - - - - - - -
10/09:00am 31.6 SE 1 3 1012.5 - 0.0 - - - - - - -
10/08:30am 29.6 ESE 2 3 1012.6 - 0.0 - - - - - - -
10/08:00am 27.8 SSE 2 4 1012.6 - 0.0 - - - - - - -
10/07:30am 26.0 E 2 5 1012.7 - 0.0 - - - - - - -
10/07:00am 22.7 CALM 0 0 1012.6 - 0.0 - - - - - - -
10/06:30am 20.0 SSE 1 2 1012.6 - 0.0 - - - - - - -
10/06:00am 16.9 S 1 2 1012.6 - 0.0 - - - - - - -
10/05:30am 14.2 S 1 2 1012.3 - 0.0 - - - - - - -
10/05:00am 14.0 S 1 3 1011.9 - 0.0 - - - - - - -
10/04:30am 14.0 CALM 0 0 1011.9 - 0.0 - - - - - - -
10/04:00am 14.2 CALM 0 0 1011.9 - 0.0 - - - - - - -
10/03:30am 16.0 CALM 0 0 1011.6 - 0.0 - - - - - - -
10/03:00am 15.4 S 2 3 1011.5 - 0.0 - - - - - - -
10/02:30am 15.9 S 3 5 1011.6 - 0.0 - - - - - - -
10/02:00am 16.5 CALM 0 0 1011.6 - 0.0 - - - - - - -
10/01:30am 17.1 SW 1 2 1011.7 - 0.0 - - - - - - -
10/01:00am 18.6 SSW 3 4 1011.9 - 0.0 - - - - - - -
10/12:30am 19.2 S 3 5 1012.0 - 0.0 - - - - - - -
10/12:00am 19.2 S 3 5 1012.2 - 0.0 - - - - - - -
 
Date/Time
WST
Temp
°C
Wind Pressure Rain since
9am
mm
Weather Cloud Vis
km
Sea
Height
m
Swell
Dir  Spd
kts
Gust
kts
hPa Trend Height
m
Period
s
Dir
09/11:30pm 19.1 S 3 5 1012.5 - 0.0 - - - - - - -
09/11:00pm 19.7 SSW 3 5 1012.9 - 0.0 - - - - - - -
09/10:30pm 21.3 SSE 5 7 1012.9 - 0.0 - - - - - - -
09/10:00pm 21.6 S 5 9 1013.0 - 0.0 - - - - - - -
09/09:30pm 22.2 S 7 9 1013.0 - 0.0 - - - - - - -
09/09:00pm 22.6 S 8 11 1013.0 - 0.0 - - - - - - -
09/08:30pm 21.1 S 4 7 1012.7 - 0.0 - - - - - - -
09/08:00pm 21.7 CALM 0 0 1012.3 - 0.0 - - - - - - -
09/07:30pm 23.4 ESE 3 3 1011.7 - 0.0 - - - - - - -
09/07:00pm 25.0 SE 6 8 1011.6 - 0.0 - - - - - - -
09/06:30pm 26.4 SSE 4 7 1011.9 - 0.0 - - - - - - -
09/06:00pm 26.6 S 5 7 1011.7 - 0.0 - - - - - - -
09/05:30pm 25.4 S 5 8 1012.0 - 0.0 - - - - - - -
09/05:00pm 25.1 SW 9 13 1011.9 - 0.0 - - - - - - -
09/04:30pm 25.6 SW 5 8 1012.2 - 0.0 - - - - - - -
09/04:00pm 24.8 NW 3 5 1013.1 - 0.0 - - - - - - -
09/03:30pm 24.3 NW 3 6 1013.4 - 0.0 - - - - - - -
09/03:00pm 23.8 NW 5 12 1013.0 - 0.0 - - - - - - -
09/02:30pm 22.9 NW 7 11 1013.2 - 0.0 - - - - - - -
09/02:00pm 24.7 NNW 9 15 1013.6 - 0.0 - - - - - - -
09/01:30pm 26.9 NW 9 13 1013.1 - 0.0 - - - - - - -
09/01:00pm 29.9 NW 8 14 1013.0 - 0.0 - - - - - - -
09/12:30pm 30.9 NNW 6 11 1012.8 - 0.0 - - - - - - -
09/12:00pm 30.8 NNE 2 4 1012.6 - 0.0 - - - - - - -
09/11:30am 29.9 SW 3 5 1012.3 - 0.0 - - - - - - -
09/11:00am 29.7 SSW 1 3 1012.3 - 0.0 - - - - - - -
09/10:30am 28.8 WSW 3 5 1012.9 - 0.0 - - - - - - -
09/10:00am 28.4 ESE 3 5 1012.6 - 0.0 - - - - - - -
09/09:30am 27.1 E 5 7 1012.4 - 0.0 - - - - - - -
09/09:00am 26.9 E 6 8 1012.6 - 0.0 - - - - - - -
09/08:30am 25.0 E 5 8 1013.0 - 0.0 - - - - - - -
09/08:00am 24.2 E 6 12 1013.2 - 0.0 - - - - - - -
09/07:30am 22.8 E 9 14 1013.1 - 0.0 - - - - - - -
09/07:00am 21.7 E 9 13 1013.1 - 0.0 - - - - - - -
09/06:30am 21.2 E 10 14 1013.1 - 0.0 - - - - - - -
09/06:00am 20.0 E 7 11 1013.3 - 0.0 - - - - - - -
09/05:30am 19.7 ENE 6 9 1013.3 - 0.0 - - - - - - -
09/05:00am 19.9 ENE 6 9 1013.1 - 0.0 - - - - - - -
09/04:30am 19.8 E 7 11 1012.8 - 0.0 - - - - - - -
09/04:00am 20.3 E 6 13 1012.7 - 0.0 - - - - - - -
09/03:30am 20.5 E 10 16 1012.7 - 0.0 - - - - - - -
09/03:00am 20.7 E 10 16 1012.4 - 0.0 - - - - - - -
09/02:30am 20.1 E 8 12 1012.2 - 0.0 - - - - - - -
09/02:00am 19.3 E 5 7 1012.4 - 0.0 - - - - - - -
09/01:30am 20.8 ESE 8 11 1011.9 - 0.0 - - - - - - -
09/01:00am 21.5 ESE 9 12 1011.7 - 0.0 - - - - - - -
09/12:30am 21.9 ESE 8 13 1012.1 - 0.0 - - - - - - -
09/12:00am 22.3 ESE 9 14 1012.5 - 0.0 - - - - - - -
 
Date/Time
WST
Temp
°C
Wind Pressure Rain since
9am
mm
Weather Cloud Vis
km
Sea
Height
m
Swell
Dir  Spd
kts
Gust
kts
hPa Trend Height
m
Period
s
Dir
08/11:30pm 22.5 ESE 9 13 1012.7 - 0.0 - - - - - - -
08/11:00pm 22.7 SE 9 13 1012.9 - 0.0 - - - - - - -
08/10:30pm 22.4 SE 8 11 1013.1 - 0.0 - - - - - - -
08/10:00pm 23.3 SE 11 16 1013.0 - 0.0 - - - - - - -
08/09:30pm 23.2 SSE 10 15 1012.9 - 0.0 - - - - - - -
08/09:00pm 23.8 SSE 9 16 1012.8 - 0.0 - - - - - - -
08/08:30pm 24.2 S 9 13 1012.7 - 0.0 - - - - - - -
08/08:00pm 24.7 S 6 9 1012.6 - 0.0 - - - - - - -
08/07:30pm 25.1 SSW 4 4 1012.6 - 0.0 - - - - - - -
08/07:00pm 26.5 SSW 5 7 1012.6 - 0.0 - - - - - - -
08/06:30pm 28.4 SW 7 10 1012.7 - 0.0 - - - - - - -
08/06:00pm 29.1 SW 7 11 1012.5 - 0.0 - - - - - - -

Other Formats:

Comma delimited format used in spreadsheet applications
http://www.bom.gov.au/fwo/IDW60701/IDW60701.94604.axf

JavaScript Object Notation format (JSON) in row-major order
http://www.bom.gov.au/fwo/IDW60701/IDW60701.94604.json